Time;durP1;ratioP1;P1;durP2;ratioP2;P2;SDS_P1;SDS_P2;PMS_P1;PMS_P2;Temp;Humidity;BMP_temperature;BMP_pressure;BME280_temperature;BME280_humidity;BME280_pressure;Samples;Min_cycle;Max_cycle;Signal;HPM_P1;HPM_P2
2022/10/06 00:01:02;;;;;;;1.27;1.17;;;22.20;45.10;;;;;;5037904;28;20236;-58
2022/10/06 00:03:29;;;;;;;1.30;1.20;;;22.20;45.10;;;;;;5034974;28;20302;-61
2022/10/06 00:05:59;;;;;;;1.10;1.00;;;22.20;45.10;;;;;;5039186;28;20455;-62
2022/10/06 00:08:25;;;;;;;1.10;1.00;;;22.20;45.10;;;;;;5040698;28;20902;-59
2022/10/06 00:10:54;;;;;;;1.20;1.10;;;22.20;45.10;;;;;;5036856;28;20584;-58
2022/10/06 00:13:20;;;;;;;0.90;0.90;;;22.20;45.10;;;;;;5035296;28;20236;-60
2022/10/06 00:15:45;;;;;;;1.23;1.13;;;22.20;45.10;;;;;;5036585;28;20452;-59
2022/10/06 00:18:11;;;;;;;1.10;1.00;;;22.20;45.10;;;;;;5035701;28;20270;-61
2022/10/06 00:20:36;;;;;;;1.10;1.00;;;22.20;45.10;;;;;;5042311;28;20218;-58
2022/10/06 00:23:02;;;;;;;1.00;1.00;;;22.20;45.10;;;;;;5035110;28;20261;-58
2022/10/06 00:25:28;;;;;;;1.43;1.33;;;22.20;45.10;;;;;;5036116;28;20567;-59
2022/10/06 00:27:54;;;;;;;1.33;1.00;;;22.20;45.10;;;;;;5036089;28;20223;-60
2022/10/06 00:30:23;;;;;;;1.10;1.00;;;22.20;45.10;;;;;;5038088;28;21025;-60
2022/10/06 00:32:57;;;;;;;1.27;1.17;;;22.20;45.10;;;;;;5033977;28;20455;-59
2022/10/06 00:35:28;;;;;;;1.40;1.30;;;22.20;45.10;;;;;;5036488;28;20586;-58
2022/10/06 00:37:53;;;;;;;2.83;1.13;;;22.20;45.20;;;;;;5032183;28;20451;-58
2022/10/06 00:40:20;;;;;;;1.20;1.13;;;22.20;45.10;;;;;;5036464;28;20466;-59
2022/10/06 00:43:01;;;;;;;1.20;0.90;;;22.20;45.20;;;;;;5037103;28;20222;-58
2022/10/06 00:45:46;;;;;;;1.10;1.00;;;22.20;45.10;;;;;;5040539;28;20586;-58
2022/10/06 00:48:20;;;;;;;2.70;1.10;;;22.20;45.20;;;;;;5037105;28;20467;-58
2022/10/06 00:50:46;;;;;;;1.30;1.03;;;22.20;45.20;;;;;;5039609;28;20628;-60
2022/10/06 00:53:13;;;;;;;1.60;1.03;;;22.20;45.20;;;;;;5038807;28;20475;-58
2022/10/06 00:55:39;;;;;;;1.30;1.20;;;22.20;45.20;;;;;;5035570;28;20538;-59
2022/10/06 00:58:06;;;;;;;1.10;1.00;;;22.20;45.20;;;;;;5039053;28;20462;-61
2022/10/06 01:00:32;;;;;;;1.00;1.00;;;22.30;45.30;;;;;;5051644;28;20221;-61
2022/10/06 01:03:14;;;;;;;1.00;0.93;;;22.20;45.20;;;;;;5033949;28;20889;-59
2022/10/06 01:05:43;;;;;;;1.40;1.30;;;22.20;45.20;;;;;;5037601;28;20451;-60
2022/10/06 01:08:09;;;;;;;1.10;0.97;;;22.20;45.30;;;;;;5038868;28;20475;-59
2022/10/06 01:10:34;;;;;;;0.90;0.90;;;22.20;45.20;;;;;;5038823;28;20854;-58
2022/10/06 01:13:01;;;;;;;1.23;1.10;;;22.20;45.20;;;;;;5043690;28;20234;-60
2022/10/06 01:15:27;;;;;;;1.30;1.20;;;22.20;45.30;;;;;;5038133;28;20306;-60
2022/10/06 01:17:57;;;;;;;1.03;0.90;;;22.20;45.20;;;;;;5035701;28;20442;-60
2022/10/06 01:20:23;;;;;;;1.20;1.10;;;22.20;45.20;;;;;;5035187;28;20442;-60
2022/10/06 01:23:01;;;;;;;0.93;0.93;;;22.20;45.20;;;;;;5035949;28;20488;-60
2022/10/06 01:25:27;;;;;;;1.10;1.00;;;22.20;45.20;;;;;;5040262;28;20868;-61
2022/10/06 01:27:54;;;;;;;1.07;0.97;;;22.20;45.20;;;;;;5018976;28;20861;-58
2022/10/06 01:30:27;;;;;;;1.00;1.00;;;22.20;45.30;;;;;;5030265;28;20341;-61
2022/10/06 01:32:52;;;;;;;1.30;1.20;;;22.20;45.20;;;;;;5037214;28;20463;-59
2022/10/06 01:35:18;;;;;;;1.23;1.00;;;22.20;45.20;;;;;;5037783;28;22189;-59
2022/10/06 01:37:43;;;;;;;1.10;1.00;;;22.20;45.20;;;;;;5035731;28;20668;-58
2022/10/06 01:40:09;;;;;;;1.17;1.07;;;22.20;45.20;;;;;;5039600;28;20717;-58
2022/10/06 01:42:35;;;;;;;1.20;1.10;;;22.20;45.20;;;;;;5036939;28;20227;-59
2022/10/06 01:45:01;;;;;;;1.00;0.90;;;22.20;45.20;;;;;;5038451;28;20229;-61
2022/10/06 01:47:27;;;;;;;1.90;1.00;;;22.20;45.30;;;;;;5035531;28;20210;-61
2022/10/06 01:49:52;;;;;;;0.80;0.80;;;22.20;45.30;;;;;;5040755;28;20486;-58
2022/10/06 01:52:19;;;;;;;1.20;1.10;;;22.20;45.20;;;;;;5038258;28;20232;-61
2022/10/06 01:54:45;;;;;;;0.90;0.90;;;22.20;45.30;;;;;;5038002;28;20692;-59
2022/10/06 01:57:10;;;;;;;1.07;0.97;;;22.20;45.30;;;;;;5034904;28;20517;-58
2022/10/06 01:59:36;;;;;;;1.00;0.90;;;22.20;45.30;;;;;;5039938;28;20268;-57
2022/10/06 02:02:02;;;;;;;1.00;0.90;;;22.20;45.30;;;;;;5038467;28;20226;-62
2022/10/06 02:04:28;;;;;;;0.90;0.90;;;22.20;45.30;;;;;;5037597;28;20965;-59
2022/10/06 02:06:54;;;;;;;0.93;0.93;;;22.20;45.30;;;;;;5041851;28;20703;-61
2022/10/06 02:09:20;;;;;;;0.80;0.80;;;22.20;45.30;;;;;;5029951;28;20494;-61
2022/10/06 02:11:46;;;;;;;1.07;0.97;;;22.20;45.30;;;;;;5039109;28;20980;-58
2022/10/06 02:14:12;;;;;;;1.17;1.00;;;22.20;45.30;;;;;;5041474;28;20471;-59
2022/10/06 02:16:38;;;;;;;1.20;1.00;;;22.20;45.30;;;;;;5040185;28;20287;-58
2022/10/06 02:19:03;;;;;;;1.10;1.00;;;22.20;45.30;;;;;;5039313;28;20234;-58
2022/10/06 02:21:29;;;;;;;1.10;1.00;;;22.20;45.30;;;;;;5040976;28;20230;-60
2022/10/06 02:23:56;;;;;;;0.80;0.70;;;22.20;45.30;;;;;;5042025;28;20282;-59
2022/10/06 02:26:21;;;;;;;1.10;1.00;;;22.20;45.30;;;;;;5036160;28;20654;-58
2022/10/06 02:28:48;;;;;;;1.00;0.97;;;22.20;45.30;;;;;;5041162;28;20467;-58
2022/10/06 02:31:15;;;;;;;0.80;0.80;;;22.20;45.30;;;;;;5040033;28;20726;-62
2022/10/06 02:33:41;;;;;;;1.80;0.90;;;22.20;45.30;;;;;;5040095;28;20873;-58
2022/10/06 02:36:08;;;;;;;2.23;2.03;;;22.20;45.30;;;;;;5036829;28;20508;-59
2022/10/06 02:38:34;;;;;;;1.03;0.93;;;22.20;45.30;;;;;;5040124;28;20471;-58
2022/10/06 02:41:00;;;;;;;1.37;1.27;;;22.20;45.40;;;;;;5038639;28;20475;-61
2022/10/06 02:43:30;;;;;;;1.30;0.90;;;22.20;45.30;;;;;;5041062;28;20276;-58
2022/10/06 02:46:01;;;;;;;1.47;0.80;;;22.20;45.40;;;;;;5040210;28;20473;-57
2022/10/06 02:48:28;;;;;;;0.90;0.90;;;22.20;45.40;;;;;;5040213;28;21311;-59
2022/10/06 02:51:00;;;;;;;0.90;0.90;;;22.20;45.40;;;;;;5040637;28;20451;-58
2022/10/06 02:53:26;;;;;;;1.20;1.10;;;22.20;45.30;;;;;;5042347;28;20487;-58
2022/10/06 02:56:06;;;;;;;1.30;0.90;;;22.20;45.40;;;;;;5039382;28;20609;-59
2022/10/06 02:58:32;;;;;;;1.00;1.00;;;22.20;45.30;;;;;;5040869;28;21273;-58
2022/10/06 03:01:01;;;;;;;1.03;0.93;;;22.20;45.30;;;;;;5037984;28;20471;-58
2022/10/06 03:03:27;;;;;;;0.83;0.83;;;22.20;45.30;;;;;;5039508;28;20233;-59
2022/10/06 03:06:22;;;;;;;1.03;0.90;;;22.20;45.30;;;;;;5040974;28;20436;-61
2022/10/06 03:08:52;;;;;;;0.80;0.80;;;22.20;45.30;;;;;;5036494;28;20718;-59
2022/10/06 03:11:19;;;;;;;1.00;0.90;;;22.20;45.40;;;;;;5037102;28;20509;-62
2022/10/06 03:13:46;;;;;;;0.90;0.80;;;22.20;45.50;;;;;;5037821;28;20497;-60
2022/10/06 03:16:16;;;;;;;0.93;0.90;;;22.20;45.40;;;;;;5036542;28;20455;-59
2022/10/06 03:18:44;;;;;;;1.03;0.93;;;22.20;45.40;;;;;;5039154;28;20458;-60
2022/10/06 03:21:11;;;;;;;1.10;1.00;;;22.20;45.40;;;;;;5035251;28;21280;-58
2022/10/06 03:23:36;;;;;;;1.07;0.97;;;22.20;45.50;;;;;;5038853;28;20560;-59
2022/10/06 03:26:02;;;;;;;1.00;0.90;;;22.20;45.40;;;;;;5040088;28;20549;-59
2022/10/06 03:28:27;;;;;;;0.87;0.87;;;22.20;45.50;;;;;;5036506;28;20222;-60
2022/10/06 03:30:53;;;;;;;1.03;0.93;;;22.20;45.40;;;;;;5039020;28;20214;-59
2022/10/06 03:33:19;;;;;;;1.93;1.00;;;22.20;45.40;;;;;;5039075;28;20241;-58
2022/10/06 03:35:44;;;;;;;1.10;1.00;;;22.20;45.50;;;;;;5041824;28;20447;-59
2022/10/06 03:38:10;;;;;;;1.00;0.90;;;22.20;45.40;;;;;;5041270;28;20222;-62
2022/10/06 03:40:35;;;;;;;0.90;0.90;;;22.20;45.40;;;;;;5043317;28;20245;-59
2022/10/06 03:43:01;;;;;;;1.00;0.90;;;22.20;45.50;;;;;;5043961;28;20256;-58
2022/10/06 03:45:26;;;;;;;1.13;0.90;;;22.20;45.40;;;;;;5040316;28;20214;-60
2022/10/06 03:47:54;;;;;;;1.00;0.90;;;22.20;45.50;;;;;;5042180;28;20242;-58
2022/10/06 03:50:20;;;;;;;0.90;0.90;;;22.20;45.50;;;;;;5040938;28;20253;-60
2022/10/06 03:52:50;;;;;;;1.13;1.03;;;22.20;45.50;;;;;;5039862;28;20481;-58
2022/10/06 03:55:15;;;;;;;0.80;0.80;;;22.20;45.40;;;;;;5037234;28;20349;-58
2022/10/06 03:57:41;;;;;;;0.90;0.90;;;22.20;45.40;;;;;;5040499;28;20439;-62
2022/10/06 04:00:08;;;;;;;1.00;0.83;;;22.20;45.50;;;;;;5046335;28;20218;-58
2022/10/06 04:02:33;;;;;;;1.10;1.00;;;22.20;45.50;;;;;;5043727;28;20226;-58
2022/10/06 04:04:58;;;;;;;0.80;0.80;;;22.20;45.50;;;;;;5040020;28;20461;-58
2022/10/06 04:07:24;;;;;;;0.80;0.80;;;22.20;45.40;;;;;;5039171;28;20221;-59
2022/10/06 04:09:50;;;;;;;1.03;0.93;;;22.20;45.50;;;;;;5041885;28;20810;-59
2022/10/06 04:12:15;;;;;;;0.80;0.80;;;22.20;45.50;;;;;;5037703;28;20214;-58
2022/10/06 04:14:41;;;;;;;0.90;0.90;;;22.20;45.50;;;;;;5036720;28;20588;-59
2022/10/06 04:17:06;;;;;;;1.57;0.90;;;22.20;45.50;;;;;;5035585;28;20301;-59
2022/10/06 04:19:32;;;;;;;1.10;1.00;;;22.20;45.50;;;;;;5040606;28;20253;-59
2022/10/06 04:21:57;;;;;;;1.57;0.90;;;22.20;45.50;;;;;;5037489;28;20690;-61
2022/10/06 04:24:23;;;;;;;1.33;1.00;;;22.20;45.50;;;;;;5037055;28;20245;-60
2022/10/06 04:26:48;;;;;;;0.90;0.90;;;22.20;45.40;;;;;;5040107;28;20241;-61
2022/10/06 04:29:14;;;;;;;1.10;0.90;;;22.20;45.40;;;;;;5042298;28;20227;-60
2022/10/06 04:31:41;;;;;;;1.00;0.90;;;22.20;45.40;;;;;;5041739;28;20223;-58
2022/10/06 04:34:08;;;;;;;1.00;0.90;;;22.20;45.30;;;;;;5041749;28;20237;-59
2022/10/06 04:36:38;;;;;;;1.00;0.90;;;22.20;45.30;;;;;;5042573;28;20953;-61
2022/10/06 04:39:05;;;;;;;1.67;1.30;;;22.30;45.30;;;;;;5040603;28;20459;-58
2022/10/06 04:41:34;;;;;;;1.23;0.90;;;22.30;45.20;;;;;;5042379;28;20463;-60
2022/10/06 04:44:01;;;;;;;0.80;0.80;;;22.30;45.20;;;;;;5037092;28;20467;-60
2022/10/06 04:46:28;;;;;;;0.80;0.80;;;22.30;45.20;;;;;;5038138;28;20451;-61
2022/10/06 04:48:54;;;;;;;0.77;0.77;;;22.30;45.20;;;;;;5030822;28;21328;-60
2022/10/06 04:51:22;;;;;;;0.93;0.83;;;22.30;45.10;;;;;;5034633;28;20456;-59
2022/10/06 04:53:48;;;;;;;0.90;0.80;;;22.30;45.10;;;;;;5037153;28;20480;-63
2022/10/06 04:56:16;;;;;;;0.80;0.80;;;22.30;45.20;;;;;;5033325;28;21109;-60
2022/10/06 04:58:48;;;;;;;1.00;0.90;;;22.30;45.10;;;;;;5036775;28;20347;-60
2022/10/06 05:01:22;;;;;;;0.93;0.80;;;22.30;45.10;;;;;;5032284;28;20466;-60
2022/10/06 05:03:50;;;;;;;1.43;1.00;;;22.30;45.20;;;;;;5034514;28;20532;-62
2022/10/06 05:06:27;;;;;;;1.10;1.00;;;22.30;45.10;;;;;;5036309;28;20471;-59
2022/10/06 05:08:55;;;;;;;1.20;0.77;;;22.30;45.20;;;;;;5027775;28;21041;-58
2022/10/06 05:11:22;;;;;;;1.10;1.00;;;22.30;45.20;;;;;;5031910;28;20506;-59
2022/10/06 05:13:49;;;;;;;0.77;0.77;;;22.30;45.20;;;;;;5034254;28;20529;-61
2022/10/06 05:16:16;;;;;;;1.07;0.97;;;22.30;45.20;;;;;;5031917;28;20968;-59
2022/10/06 05:18:42;;;;;;;0.80;0.80;;;22.30;45.20;;;;;;5036142;28;20498;-61
2022/10/06 05:21:14;;;;;;;1.00;0.90;;;22.30;45.20;;;;;;5024634;28;20894;-60
2022/10/06 05:23:42;;;;;;;0.80;0.80;;;22.30;45.20;;;;;;5033609;28;20573;-59
2022/10/06 05:26:09;;;;;;;1.27;0.90;;;22.30;45.20;;;;;;5020815;28;20455;-59
2022/10/06 05:28:34;;;;;;;0.70;0.70;;;22.30;45.20;;;;;;5040166;28;20457;-62
2022/10/06 05:31:06;;;;;;;0.90;0.80;;;22.30;45.20;;;;;;5040644;28;20463;-59
2022/10/06 05:33:33;;;;;;;1.30;0.90;;;22.30;45.20;;;;;;5040340;28;20240;-60
2022/10/06 05:36:04;;;;;;;1.20;1.10;;;22.30;45.30;;;;;;5044274;28;20462;-59
2022/10/06 05:38:30;;;;;;;1.10;0.90;;;22.30;45.20;;;;;;5042381;28;20451;-60
2022/10/06 05:41:03;;;;;;;1.00;0.90;;;22.30;45.20;;;;;;5045378;28;20820;-59
2022/10/06 05:43:30;;;;;;;1.00;0.90;;;22.30;45.20;;;;;;5043607;28;20237;-60
2022/10/06 05:45:58;;;;;;;0.80;0.80;;;22.30;45.20;;;;;;5046390;28;20455;-58
2022/10/06 05:48:24;;;;;;;1.73;0.97;;;22.30;45.30;;;;;;5045451;28;20454;-60
2022/10/06 05:51:04;;;;;;;0.70;0.70;;;22.30;45.20;;;;;;5039503;28;21091;-60
2022/10/06 05:53:31;;;;;;;0.80;0.70;;;22.30;45.20;;;;;;5017498;28;20471;-62
2022/10/06 05:56:08;;;;;;;0.90;0.77;;;22.30;45.20;;;;;;5035278;28;20540;-60
2022/10/06 05:58:35;;;;;;;0.90;0.87;;;22.30;45.30;;;;;;5035860;28;20446;-61
2022/10/06 06:01:12;;;;;;;0.93;0.90;;;22.20;45.20;;;;;;5013674;28;20481;-61
2022/10/06 06:03:39;;;;;;;0.90;0.80;;;22.20;45.10;;;;;;5032549;28;20557;-60
2022/10/06 06:06:20;;;;;;;1.00;0.73;;;22.30;45.30;;;;;;5035531;28;20455;-59
2022/10/06 06:08:50;;;;;;;1.63;1.10;;;22.30;45.30;;;;;;5031068;28;21265;-60
2022/10/06 06:11:15;;;;;;;0.90;0.80;;;22.30;45.30;;;;;;5036872;28;20530;-63
2022/10/06 06:13:41;;;;;;;1.53;0.90;;;22.20;45.20;;;;;;5055036;28;20957;-58
2022/10/06 06:16:11;;;;;;;1.00;0.80;;;22.30;45.20;;;;;;5042232;28;20223;-59
2022/10/06 06:18:36;;;;;;;1.30;1.00;;;22.20;45.20;;;;;;5037898;28;20431;-60
2022/10/06 06:21:05;;;;;;;1.63;0.90;;;22.20;45.20;;;;;;5040607;28;21060;-61
2022/10/06 06:23:36;;;;;;;1.20;1.10;;;22.30;45.20;;;;;;5024987;28;20576;-60
2022/10/06 06:26:10;;;;;;;0.87;0.87;;;22.30;45.30;;;;;;5037616;28;20558;-60
2022/10/06 06:28:36;;;;;;;4.60;0.80;;;22.20;45.10;;;;;;5035094;28;20486;-60
2022/10/06 06:31:08;;;;;;;1.30;0.90;;;22.20;45.10;;;;;;5036350;28;21033;-59
2022/10/06 06:33:36;;;;;;;1.80;1.03;;;22.20;45.10;;;;;;5033507;28;20234;-62
2022/10/06 06:36:03;;;;;;;1.13;0.87;;;22.20;45.10;;;;;;5035702;28;20458;-59
2022/10/06 06:38:31;;;;;;;1.33;0.97;;;22.20;45.10;;;;;;5034214;28;20448;-60
2022/10/06 06:40:57;;;;;;;1.20;0.90;;;22.20;45.10;;;;;;5036644;28;21111;-59
2022/10/06 06:43:22;;;;;;;0.87;0.87;;;22.20;45.10;;;;;;5034140;28;20965;-59
2022/10/06 06:45:48;;;;;;;1.00;0.73;;;22.20;45.00;;;;;;5035459;28;20292;-60
2022/10/06 06:48:15;;;;;;;1.20;0.90;;;22.20;45.00;;;;;;5039458;28;20297;-60
2022/10/06 06:50:44;;;;;;;1.00;0.90;;;22.20;45.00;;;;;;5044172;28;20233;-59
2022/10/06 06:53:12;;;;;;;0.90;0.80;;;22.20;45.00;;;;;;5043403;28;20459;-58
2022/10/06 06:55:49;;;;;;;1.00;0.90;;;22.20;45.10;;;;;;5043469;28;20455;-58
2022/10/06 06:58:16;;;;;;;1.00;0.90;;;22.20;45.00;;;;;;5038777;28;20450;-60
2022/10/06 07:00:41;;;;;;;1.03;0.93;;;22.20;45.10;;;;;;5040636;28;20451;-59
2022/10/06 07:03:12;;;;;;;1.10;0.93;;;22.20;45.10;;;;;;5036086;28;20850;-59
2022/10/06 07:05:38;;;;;;;1.40;0.90;;;22.20;45.00;;;;;;5040580;28;20347;-60
2022/10/06 07:08:08;;;;;;;1.03;0.87;;;22.20;45.10;;;;;;5038093;28;20451;-60
2022/10/06 07:10:35;;;;;;;1.10;1.00;;;22.20;45.20;;;;;;5035768;28;20470;-60
2022/10/06 07:13:00;;;;;;;1.07;0.80;;;22.20;45.00;;;;;;5036878;28;20469;-60
2022/10/06 07:26:23;;;;;;;1.10;0.90;;;22.20;45.00;;;;;;5034636;28;21249;-62
2022/10/06 07:28:48;;;;;;;1.37;1.00;;;22.20;45.00;;;;;;5037950;28;21068;-59
2022/10/06 07:31:17;;;;;;;1.67;1.00;;;22.20;45.00;;;;;;5036637;28;21054;-60
2022/10/06 07:33:43;;;;;;;1.80;0.97;;;22.20;45.00;;;;;;5020318;28;20336;-62
2022/10/06 07:36:10;;;;;;;2.60;0.90;;;22.20;45.00;;;;;;5052258;28;20447;-62
2022/10/06 07:38:36;;;;;;;1.83;1.00;;;22.20;45.00;;;;;;5034438;28;20257;-60
2022/10/06 07:41:02;;;;;;;1.60;1.00;;;22.20;45.00;;;;;;5038974;28;20497;-60
2022/10/06 07:43:27;;;;;;;1.33;0.97;;;22.20;45.00;;;;;;5037038;28;20452;-60
2022/10/06 07:45:53;;;;;;;1.20;1.03;;;22.20;45.00;;;;;;5018639;28;20222;-60
2022/10/06 07:48:20;;;;;;;2.10;1.00;;;22.20;45.00;;;;;;5035738;28;20214;-58
2022/10/06 07:50:48;;;;;;;1.00;0.90;;;22.20;45.00;;;;;;5034727;28;20240;-59
2022/10/06 07:53:16;;;;;;;1.10;1.00;;;22.20;45.00;;;;;;5036005;28;20467;-60
2022/10/06 07:55:45;;;;;;;1.10;0.90;;;22.20;44.90;;;;;;5036500;28;20785;-60
2022/10/06 07:58:29;;;;;;;1.60;1.03;;;22.20;44.90;;;;;;5037310;28;21366;-60
2022/10/06 08:00:54;;;;;;;1.27;0.90;;;22.20;44.90;;;;;;5035445;28;20884;-60
2022/10/06 08:03:20;;;;;;;1.90;1.10;;;22.20;44.90;;;;;;5034746;28;20473;-60
2022/10/06 08:05:48;;;;;;;1.80;1.00;;;22.20;45.00;;;;;;5034638;28;20226;-61
2022/10/06 08:08:13;;;;;;;2.10;1.00;;;22.20;44.90;;;;;;5038020;28;20457;-63
2022/10/06 08:10:40;;;;;;;1.50;0.90;;;22.20;44.90;;;;;;5036867;28;20467;-59
2022/10/06 08:13:06;;;;;;;1.50;0.97;;;22.20;44.90;;;;;;5035976;28;20218;-59
2022/10/06 08:15:32;;;;;;;1.23;1.13;;;22.20;44.90;;;;;;5036462;28;20504;-61
2022/10/06 08:18:02;;;;;;;1.00;0.83;;;22.20;44.90;;;;;;5032289;28;20470;-59
2022/10/06 08:20:27;;;;;;;1.57;0.90;;;22.20;44.90;;;;;;5038273;28;20462;-59
2022/10/06 08:22:53;;;;;;;1.47;1.00;;;22.20;44.90;;;;;;5032165;28;20475;-63
2022/10/06 08:25:19;;;;;;;1.30;1.00;;;22.20;44.90;;;;;;5022575;28;20316;-60
2022/10/06 08:27:45;;;;;;;1.00;0.90;;;22.20;44.90;;;;;;5032866;28;20221;-60
2022/10/06 08:30:12;;;;;;;1.20;0.80;;;22.20;44.90;;;;;;5039490;28;20854;-60
2022/10/06 08:32:38;;;;;;;1.00;0.90;;;22.20;44.80;;;;;;5015441;28;20222;-62
2022/10/06 08:35:04;;;;;;;1.93;0.90;;;22.20;44.90;;;;;;5035397;28;20533;-60
2022/10/06 08:37:29;;;;;;;1.70;1.03;;;22.20;44.80;;;;;;5037897;28;20571;-60
2022/10/06 08:39:56;;;;;;;2.80;0.90;;;22.30;44.90;;;;;;5029421;28;20225;-59
2022/10/06 08:42:28;;;;;;;1.10;0.90;;;22.20;44.80;;;;;;5028884;28;20210;-63
2022/10/06 08:45:18;;;;;;;1.20;1.00;;;22.20;44.70;;;;;;5024529;28;21109;-59
2022/10/06 08:47:56;;;;;;;1.10;1.00;;;22.20;44.70;;;;;;5027657;28;20450;-60
2022/10/06 08:50:27;;;;;;;2.23;1.23;;;22.20;44.70;;;;;;5009166;28;20949;-60
2022/10/06 08:53:30;;;;;;;2.00;1.00;;;22.30;44.70;;;;;;5039737;28;20451;-60
2022/10/06 08:56:06;;;;;;;1.00;0.83;;;22.20;44.60;;;;;;4957087;28;20493;-60
2022/10/06 08:59:02;;;;;;;2.00;1.10;;;22.20;44.60;;;;;;5020907;28;20457;-62
2022/10/06 09:01:42;;;;;;;1.23;0.90;;;22.20;44.50;;;;;;5018595;28;21746;-61
2022/10/06 09:04:11;;;;;;;1.10;0.90;;;22.20;44.50;;;;;;5021170;28;20463;-61
2022/10/06 09:06:45;;;;;;;1.20;1.10;;;22.30;44.50;;;;;;5022505;28;20573;-59
2022/10/06 09:09:39;;;;;;;1.37;0.80;;;22.20;44.40;;;;;;5030638;28;20479;-61
2022/10/06 09:12:28;;;;;;;1.77;1.00;;;22.20;44.30;;;;;;5027587;28;20484;-61
2022/10/06 09:15:19;;;;;;;2.20;1.00;;;22.20;44.30;;;;;;5026717;28;20484;-60
2022/10/06 09:17:53;;;;;;;1.20;1.00;;;22.30;44.40;;;;;;5021069;28;20470;-62
2022/10/06 09:20:33;;;;;;;2.00;1.00;;;22.20;44.30;;;;;;5021284;28;20468;-61
2022/10/06 09:23:00;;;;;;;1.03;0.90;;;22.20;44.20;;;;;;5022088;28;21072;-62
2022/10/06 09:25:28;;;;;;;1.40;1.10;;;22.20;44.30;;;;;;5024291;28;20465;-61
2022/10/06 09:27:56;;;;;;;2.77;0.90;;;22.20;44.30;;;;;;5029764;28;20463;-60
2022/10/06 09:30:22;;;;;;;1.20;0.80;;;22.30;45.10;;;;;;5019912;28;20466;-61
2022/10/06 09:32:59;;;;;;;1.13;0.90;;;22.30;44.30;;;;;;5019584;28;20509;-62
2022/10/06 09:35:30;;;;;;;1.50;1.00;;;22.30;44.30;;;;;;5005703;28;20558;-62
2022/10/06 09:38:04;;;;;;;1.63;1.00;;;22.30;44.30;;;;;;5019113;28;21225;-60
2022/10/06 09:40:50;;;;;;;1.37;1.07;;;22.30;44.30;;;;;;5021944;28;20851;-60
2022/10/06 09:43:26;;;;;;;1.60;1.10;;;22.30;44.20;;;;;;5028426;28;20558;-62
2022/10/06 09:46:16;;;;;;;1.23;1.00;;;22.30;44.30;;;;;;5030765;28;20454;-60
2022/10/06 09:48:42;;;;;;;0.90;0.80;;;22.30;44.30;;;;;;5025131;28;20456;-62
2022/10/06 09:51:17;;;;;;;1.20;1.00;;;22.30;44.30;;;;;;5028413;28;20898;-60
2022/10/06 09:54:01;;;;;;;1.50;0.90;;;22.30;44.60;;;;;;5022040;28;20237;-63
2022/10/06 09:56:27;;;;;;;1.30;1.00;;;22.30;44.30;;;;;;5026443;28;20528;-63
2022/10/06 09:58:55;;;;;;;1.17;1.07;;;22.30;44.30;;;;;;5028609;28;20471;-60
2022/10/06 10:01:31;;;;;;;1.30;0.90;;;22.30;44.30;;;;;;5024330;28;20313;-62
2022/10/06 10:04:01;;;;;;;1.10;1.00;;;22.30;44.30;;;;;;5020444;28;20477;-59
2022/10/06 10:06:27;;;;;;;1.77;0.93;;;22.30;44.30;;;;;;5024380;28;20467;-61
2022/10/06 10:09:18;;;;;;;1.37;0.77;;;22.30;44.30;;;;;;5020464;28;20921;-59
2022/10/06 10:14:43;;;;;;;1.60;1.07;;;22.30;44.30;;;;;;5030549;28;20486;-63
2022/10/06 10:17:22;;;;;;;1.73;1.00;;;22.30;45.00;;;;;;5021411;28;20463;-59
2022/10/06 10:19:54;;;;;;;2.50;1.00;;;22.30;44.20;;;;;;5022788;28;20226;-63
2022/10/06 10:22:41;;;;;;;1.20;1.00;;;22.30;44.20;;;;;;5034786;28;21282;-62
2022/10/06 10:25:31;;;;;;;1.20;0.90;;;22.30;44.30;;;;;;5029284;28;20480;-60
2022/10/06 10:28:02;;;;;;;1.07;0.97;;;22.30;44.20;;;;;;5027502;28;20817;-60
2022/10/06 10:30:32;;;;;;;1.10;0.87;;;22.30;44.20;;;;;;5035454;28;20784;-61
2022/10/06 10:33:05;;;;;;;1.10;0.90;;;22.30;44.20;;;;;;5025146;28;20460;-63
2022/10/06 10:35:36;;;;;;;1.47;1.37;;;22.30;44.20;;;;;;5008889;28;20525;-60
2022/10/06 10:38:11;;;;;;;3.13;1.17;;;22.30;44.20;;;;;;5027212;28;20467;-62
2022/10/06 10:40:42;;;;;;;1.13;0.90;;;22.30;44.10;;;;;;5027647;28;20451;-60
2022/10/06 10:43:34;;;;;;;1.07;0.97;;;22.30;44.20;;;;;;5025048;28;20486;-59
2022/10/06 10:46:12;;;;;;;0.93;0.83;;;22.30;44.20;;;;;;5029403;28;20581;-61
2022/10/06 10:49:10;;;;;;;1.23;0.90;;;22.30;44.20;;;;;;5013415;28;20512;-63
2022/10/06 10:51:51;;;;;;;2.70;1.10;;;22.30;44.20;;;;;;5026152;28;20463;-60
2022/10/06 10:54:23;;;;;;;0.97;0.87;;;22.30;44.20;;;;;;5025785;28;20475;-63
2022/10/06 10:56:51;;;;;;;1.30;1.00;;;22.30;44.20;;;;;;5024943;28;20443;-61
2022/10/06 10:59:21;;;;;;;1.83;1.47;;;22.30;44.20;;;;;;5026679;28;21027;-61
2022/10/06 11:01:58;;;;;;;1.10;0.80;;;22.30;44.10;;;;;;5036625;28;20478;-63
2022/10/06 11:04:24;;;;;;;1.17;1.07;;;22.30;44.10;;;;;;5028811;28;20552;-60
2022/10/06 11:07:29;;;;;;;1.93;0.90;;;22.30;44.10;;;;;;5034541;28;20553;-60
2022/10/06 11:10:19;;;;;;;1.37;0.90;;;22.30;44.10;;;;;;5024103;28;20981;-62
2022/10/06 11:13:13;;;;;;;2.60;0.80;;;22.30;44.10;;;;;;5033457;28;20531;-63
2022/10/06 11:16:07;;;;;;;1.20;0.90;;;22.30;44.10;;;;;;5037973;28;20477;-60
2022/10/06 11:19:08;;;;;;;1.23;0.90;;;22.30;44.10;;;;;;5038234;28;20470;-63
2022/10/06 11:22:10;;;;;;;1.23;0.80;;;22.30;44.10;;;;;;5033584;28;20466;-60
2022/10/06 11:25:12;;;;;;;3.03;1.17;;;22.30;44.00;;;;;;5031323;28;20469;-61
2022/10/06 11:27:57;;;;;;;1.50;0.90;;;22.20;43.90;;;;;;5033648;28;20447;-60
2022/10/06 11:30:27;;;;;;;1.13;0.90;;;22.20;44.00;;;;;;5012873;28;20524;-64
2022/10/06 11:33:39;;;;;;;1.20;0.97;;;22.20;43.90;;;;;;5033477;28;20459;-64
2022/10/06 11:36:12;;;;;;;1.57;1.10;;;22.20;43.80;;;;;;5026194;28;20485;-60
2022/10/06 11:38:48;;;;;;;1.43;1.10;;;22.20;43.90;;;;;;5032488;28;20495;-61
2022/10/06 11:41:30;;;;;;;1.10;0.83;;;22.20;43.80;;;;;;5029713;28;20548;-63
2022/10/06 11:44:02;;;;;;;1.23;0.77;;;22.20;43.90;;;;;;5029672;28;20964;-61
2022/10/06 11:46:48;;;;;;;1.43;0.87;;;22.20;43.90;;;;;;5033354;28;20530;-63
2022/10/06 11:49:29;;;;;;;1.00;0.80;;;22.20;43.80;;;;;;5030827;28;20524;-62
2022/10/06 11:52:20;;;;;;;0.80;0.67;;;22.20;43.90;;;;;;5030093;28;20542;-61
2022/10/06 11:55:04;;;;;;;1.53;0.73;;;22.20;43.80;;;;;;5029198;28;20470;-60
2022/10/06 11:57:31;;;;;;;1.03;0.87;;;22.20;43.80;;;;;;5031329;28;20479;-59
2022/10/06 12:00:15;;;;;;;0.90;0.80;;;22.20;43.80;;;;;;5031797;28;20472;-63
2022/10/06 12:02:42;;;;;;;1.10;0.87;;;22.20;43.80;;;;;;5030852;28;20474;-63
2022/10/06 12:05:13;;;;;;;1.47;0.90;;;22.20;43.80;;;;;;5029543;28;20461;-61
2022/10/06 12:07:51;;;;;;;1.10;0.90;;;22.20;43.80;;;;;;5030583;28;20447;-60
2022/10/06 12:10:28;;;;;;;1.40;1.10;;;22.20;43.80;;;;;;5031190;28;20478;-62
2022/10/06 12:13:20;;;;;;;1.00;0.80;;;22.20;43.80;;;;;;5030691;28;20474;-64
2022/10/06 12:16:10;;;;;;;1.17;1.07;;;22.20;43.80;;;;;;5027985;28;20479;-61
2022/10/06 12:18:52;;;;;;;1.20;1.00;;;22.20;43.80;;;;;;5032821;28;20474;-63
2022/10/06 12:21:23;;;;;;;2.23;0.90;;;22.20;43.70;;;;;;5032470;28;22132;-63
2022/10/06 12:24:15;;;;;;;1.07;0.97;;;22.20;43.80;;;;;;5034784;28;20491;-62
2022/10/06 12:26:55;;;;;;;1.13;0.90;;;22.20;43.80;;;;;;5037728;28;21156;-61
2022/10/06 12:29:42;;;;;;;1.10;1.00;;;22.20;43.80;;;;;;5037266;28;20447;-61
2022/10/06 12:32:26;;;;;;;1.77;0.80;;;22.20;43.80;;;;;;5038778;28;21254;-60
2022/10/06 12:35:08;;;;;;;1.30;0.90;;;22.20;43.80;;;;;;5029609;28;20524;-63
2022/10/06 12:37:36;;;;;;;1.93;1.07;;;22.20;43.80;;;;;;5032200;28;20525;-60
2022/10/06 12:40:42;;;;;;;1.70;1.03;;;22.20;43.80;;;;;;5029150;28;20467;-63
2022/10/06 12:43:16;;;;;;;1.17;0.90;;;22.20;43.80;;;;;;5035274;28;21236;-61
2022/10/06 12:45:53;;;;;;;1.10;0.90;;;22.20;43.80;;;;;;5035751;28;20475;-60
2022/10/06 12:48:40;;;;;;;1.00;0.90;;;22.20;43.80;;;;;;5032828;28;20524;-64
2022/10/06 12:51:12;;;;;;;1.83;0.90;;;22.20;43.90;;;;;;5028941;28;20459;-63
2022/10/06 12:53:47;;;;;;;1.40;0.90;;;22.20;43.80;;;;;;5028646;28;20475;-60
2022/10/06 12:56:37;;;;;;;1.57;0.87;;;22.20;43.80;;;;;;5028221;28;20489;-64
2022/10/06 12:59:19;;;;;;;1.10;0.90;;;22.20;43.80;;;;;;5026002;28;20502;-61
2022/10/06 13:01:46;;;;;;;8.93;1.13;;;22.20;43.80;;;;;;5027234;28;20490;-64
2022/10/06 13:04:33;;;;;;;1.23;0.90;;;22.20;43.80;;;;;;5033161;28;20467;-63
2022/10/06 13:07:04;;;;;;;1.40;0.80;;;22.20;43.70;;;;;;5035398;28;20486;-62
2022/10/06 13:09:29;;;;;;;1.83;0.90;;;22.20;43.70;;;;;;5029966;28;20486;-61
2022/10/06 13:11:55;;;;;;;1.00;0.90;;;22.20;43.70;;;;;;5033096;28;21780;-63
2022/10/06 13:14:20;;;;;;;5.13;1.00;;;22.30;43.80;;;;;;5031474;28;20303;-61
2022/10/06 13:16:47;;;;;;;1.10;1.00;;;22.30;43.70;;;;;;5029753;28;20222;-61
2022/10/06 13:19:16;;;;;;;1.20;1.10;;;22.30;43.70;;;;;;5026860;28;20233;-65
2022/10/06 13:21:42;;;;;;;2.37;1.17;;;22.30;43.70;;;;;;5029478;28;20434;-62
2022/10/06 13:24:13;;;;;;;0.90;0.80;;;22.30;43.60;;;;;;5024939;28;20545;-62